Terminal Aerodrome Forecast
Issued by NWS

Home | Current Version | Previous Version | Text Only | Print | Product List | Glossary On
Versions: 1 2 3 4 5 6 7 8 9 10 11 12 13 14 15 16 17 18 19 20 21
902
FTUS43 KLSX 181602 AAA
TAFCPS
TAF AMD
KCPS 181602Z 1816/1912 VRB04KT P6SM SCT020 BKN040
     FM190000 16004KT P6SM BKN050
     FM190900 VRB03KT P6SM OVC025
     FM191100 VRB03KT 5SM -SHRA OVC015=

USA.gov is the U.S. government's official web portal to all federal, state and local government web resources and services.